sensor_id;sensor_type;location;lat;lon;timestamp;P1;durP1;ratioP1;P2;durP2;ratioP2
76675;SDS011;69204;55.350;36.906;2024-03-25T00:02:47;2.50;;;1.10;;
76675;SDS011;69204;55.350;36.906;2024-03-25T00:07:48;2.50;;;1.20;;
76675;SDS011;69204;55.350;36.906;2024-03-25T00:12:50;2.90;;;1.30;;
76675;SDS011;69204;55.350;36.906;2024-03-25T00:17:56;2.10;;;0.90;;
76675;SDS011;69204;55.350;36.906;2024-03-25T00:22:57;3.20;;;1.20;;
76675;SDS011;69204;55.350;36.906;2024-03-25T00:27:58;2.20;;;1.05;;
76675;SDS011;69204;55.350;36.906;2024-03-25T00:32:59;2.00;;;1.00;;
76675;SDS011;69204;55.350;36.906;2024-03-25T00:38:00;3.40;;;1.57;;
76675;SDS011;69204;55.350;36.906;2024-03-25T00:43:01;2.50;;;1.30;;
76675;SDS011;69204;55.350;36.906;2024-03-25T00:48:02;2.93;;;1.53;;
76675;SDS011;69204;55.350;36.906;2024-03-25T00:53:04;2.53;;;1.00;;
76675;SDS011;69204;55.350;36.906;2024-03-25T00:58:05;2.75;;;1.00;;
76675;SDS011;69204;55.350;36.906;2024-03-25T01:03:06;2.60;;;1.03;;
76675;SDS011;69204;55.350;36.906;2024-03-25T01:08:08;2.10;;;0.90;;
76675;SDS011;69204;55.350;36.906;2024-03-25T01:13:11;2.67;;;1.40;;
76675;SDS011;69204;55.350;36.906;2024-03-25T01:18:12;3.00;;;0.90;;
76675;SDS011;69204;55.350;36.906;2024-03-25T01:23:14;2.40;;;1.17;;
76675;SDS011;69204;55.350;36.906;2024-03-25T01:28:15;2.40;;;1.17;;
76675;SDS011;69204;55.350;36.906;2024-03-25T01:33:16;2.10;;;0.95;;
76675;SDS011;69204;55.350;36.906;2024-03-25T01:38:17;2.40;;;1.23;;
76675;SDS011;69204;55.350;36.906;2024-03-25T01:43:18;2.45;;;1.20;;
76675;SDS011;69204;55.350;36.906;2024-03-25T01:48:19;2.30;;;1.00;;
76675;SDS011;69204;55.350;36.906;2024-03-25T01:53:20;2.20;;;1.05;;
76675;SDS011;69204;55.350;36.906;2024-03-25T01:58:21;2.42;;;1.20;;
76675;SDS011;69204;55.350;36.906;2024-03-25T02:03:23;2.40;;;1.20;;
76675;SDS011;69204;55.350;36.906;2024-03-25T02:08:25;2.67;;;1.40;;
76675;SDS011;69204;55.350;36.906;2024-03-25T02:13:27;2.85;;;1.33;;
76675;SDS011;69204;55.350;36.906;2024-03-25T02:18:28;2.65;;;1.27;;
76675;SDS011;69204;55.350;36.906;2024-03-25T02:23:31;2.50;;;1.20;;
76675;SDS011;69204;55.350;36.906;2024-03-25T02:28:35;2.50;;;1.20;;
76675;SDS011;69204;55.350;36.906;2024-03-25T02:33:36;2.90;;;1.40;;
76675;SDS011;69204;55.350;36.906;2024-03-25T02:38:37;2.60;;;1.20;;
76675;SDS011;69204;55.350;36.906;2024-03-25T02:43:38;2.95;;;1.00;;
76675;SDS011;69204;55.350;36.906;2024-03-25T02:48:39;2.50;;;1.10;;
76675;SDS011;69204;55.350;36.906;2024-03-25T02:53:40;2.80;;;1.40;;
76675;SDS011;69204;55.350;36.906;2024-03-25T02:58:41;3.20;;;1.42;;
76675;SDS011;69204;55.350;36.906;2024-03-25T03:03:43;3.00;;;1.33;;
76675;SDS011;69204;55.350;36.906;2024-03-25T03:08:44;2.95;;;1.20;;
76675;SDS011;69204;55.350;36.906;2024-03-25T03:13:45;2.67;;;1.27;;
76675;SDS011;69204;55.350;36.906;2024-03-25T03:18:46;2.60;;;1.20;;
76675;SDS011;69204;55.350;36.906;2024-03-25T03:23:47;2.85;;;1.30;;
76675;SDS011;69204;55.350;36.906;2024-03-25T03:28:48;3.03;;;1.30;;
76675;SDS011;69204;55.350;36.906;2024-03-25T03:33:49;2.60;;;1.30;;
76675;SDS011;69204;55.350;36.906;2024-03-25T03:38:51;3.13;;;1.30;;
76675;SDS011;69204;55.350;36.906;2024-03-25T03:43:52;2.30;;;1.00;;
76675;SDS011;69204;55.350;36.906;2024-03-25T03:48:53;2.70;;;1.27;;
76675;SDS011;69204;55.350;36.906;2024-03-25T03:53:55;5.53;;;1.30;;
76675;SDS011;69204;55.350;36.906;2024-03-25T03:58:57;2.80;;;1.50;;
76675;SDS011;69204;55.350;36.906;2024-03-25T04:03:58;2.88;;;1.40;;
76675;SDS011;69204;55.350;36.906;2024-03-25T04:09:00;3.20;;;1.33;;
76675;SDS011;69204;55.350;36.906;2024-03-25T04:14:01;2.58;;;1.33;;
76675;SDS011;69204;55.350;36.906;2024-03-25T04:19:02;3.17;;;1.57;;
76675;SDS011;69204;55.350;36.906;2024-03-25T04:24:03;3.03;;;1.25;;
76675;SDS011;69204;55.350;36.906;2024-03-25T04:29:05;2.95;;;1.48;;
76675;SDS011;69204;55.350;36.906;2024-03-25T04:34:06;2.60;;;1.23;;
76675;SDS011;69204;55.350;36.906;2024-03-25T04:39:07;3.13;;;1.95;;
76675;SDS011;69204;55.350;36.906;2024-03-25T04:44:09;5.07;;;1.83;;
76675;SDS011;69204;55.350;36.906;2024-03-25T04:49:10;3.88;;;1.70;;
76675;SDS011;69204;55.350;36.906;2024-03-25T04:54:11;3.20;;;1.67;;
76675;SDS011;69204;55.350;36.906;2024-03-25T04:59:12;3.90;;;1.70;;
76675;SDS011;69204;55.350;36.906;2024-03-25T05:04:13;2.75;;;1.60;;
76675;SDS011;69204;55.350;36.906;2024-03-25T05:09:14;4.40;;;1.80;;
76675;SDS011;69204;55.350;36.906;2024-03-25T05:14:16;3.85;;;1.83;;
76675;SDS011;69204;55.350;36.906;2024-03-25T05:19:18;3.30;;;1.63;;
76675;SDS011;69204;55.350;36.906;2024-03-25T05:24:19;3.90;;;1.67;;
76675;SDS011;69204;55.350;36.906;2024-03-25T05:29:20;3.20;;;1.60;;
76675;SDS011;69204;55.350;36.906;2024-03-25T05:34:20;3.15;;;1.48;;
76675;SDS011;69204;55.350;36.906;2024-03-25T05:39:22;5.25;;;1.52;;
76675;SDS011;69204;55.350;36.906;2024-03-25T05:44:23;5.57;;;1.63;;
76675;SDS011;69204;55.350;36.906;2024-03-25T05:49:24;3.85;;;1.85;;
76675;SDS011;69204;55.350;36.906;2024-03-25T05:54:29;4.27;;;1.73;;
76675;SDS011;69204;55.350;36.906;2024-03-25T05:59:30;5.65;;;1.50;;
76675;SDS011;69204;55.350;36.906;2024-03-25T06:04:32;5.15;;;1.70;;
76675;SDS011;69204;55.350;36.906;2024-03-25T06:09:33;4.93;;;1.92;;
76675;SDS011;69204;55.350;36.906;2024-03-25T06:14:34;4.82;;;1.90;;
76675;SDS011;69204;55.350;36.906;2024-03-25T06:19:36;4.20;;;1.80;;
76675;SDS011;69204;55.350;36.906;2024-03-25T06:24:36;3.38;;;1.88;;
76675;SDS011;69204;55.350;36.906;2024-03-25T06:29:37;5.43;;;2.87;;
76675;SDS011;69204;55.350;36.906;2024-03-25T06:34:38;6.07;;;1.73;;
76675;SDS011;69204;55.350;36.906;2024-03-25T06:39:40;6.47;;;1.65;;
76675;SDS011;69204;55.350;36.906;2024-03-25T06:44:41;3.90;;;1.60;;
76675;SDS011;69204;55.350;36.906;2024-03-25T06:49:43;4.10;;;1.63;;
76675;SDS011;69204;55.350;36.906;2024-03-25T06:54:44;4.50;;;1.80;;
76675;SDS011;69204;55.350;36.906;2024-03-25T06:59:45;4.90;;;1.88;;
76675;SDS011;69204;55.350;36.906;2024-03-25T07:04:46;5.70;;;2.08;;
76675;SDS011;69204;55.350;36.906;2024-03-25T07:09:47;5.35;;;1.90;;
76675;SDS011;69204;55.350;36.906;2024-03-25T07:14:48;5.10;;;1.90;;
76675;SDS011;69204;55.350;36.906;2024-03-25T07:19:49;5.83;;;2.10;;
76675;SDS011;69204;55.350;36.906;2024-03-25T07:24:51;4.85;;;1.90;;
76675;SDS011;69204;55.350;36.906;2024-03-25T07:29:56;3.30;;;1.70;;
76675;SDS011;69204;55.350;36.906;2024-03-25T07:35:00;4.05;;;1.98;;
76675;SDS011;69204;55.350;36.906;2024-03-25T07:40:02;3.65;;;1.75;;
76675;SDS011;69204;55.350;36.906;2024-03-25T07:45:05;6.37;;;2.10;;
76675;SDS011;69204;55.350;36.906;2024-03-25T07:50:07;4.45;;;2.08;;
76675;SDS011;69204;55.350;36.906;2024-03-25T07:55:08;4.17;;;2.00;;
76675;SDS011;69204;55.350;36.906;2024-03-25T08:00:10;4.85;;;2.42;;
76675;SDS011;69204;55.350;36.906;2024-03-25T08:05:11;4.22;;;1.80;;
76675;SDS011;69204;55.350;36.906;2024-03-25T08:10:12;5.50;;;2.90;;
76675;SDS011;69204;55.350;36.906;2024-03-25T08:15:13;5.97;;;1.60;;
76675;SDS011;69204;55.350;36.906;2024-03-25T08:20:14;3.67;;;2.00;;
76675;SDS011;69204;55.350;36.906;2024-03-25T08:25:15;4.40;;;1.83;;
76675;SDS011;69204;55.350;36.906;2024-03-25T08:30:18;4.38;;;1.73;;
76675;SDS011;69204;55.350;36.906;2024-03-25T08:35:19;3.90;;;1.98;;
76675;SDS011;69204;55.350;36.906;2024-03-25T08:40:20;3.20;;;1.60;;
76675;SDS011;69204;55.350;36.906;2024-03-25T08:45:21;4.03;;;1.83;;
76675;SDS011;69204;55.350;36.906;2024-03-25T08:50:22;4.95;;;1.73;;
76675;SDS011;69204;55.350;36.906;2024-03-25T08:55:24;5.68;;;2.00;;
76675;SDS011;69204;55.350;36.906;2024-03-25T09:00:25;4.20;;;1.90;;
76675;SDS011;69204;55.350;36.906;2024-03-25T09:05:26;4.28;;;2.00;;
76675;SDS011;69204;55.350;36.906;2024-03-25T09:10:27;3.50;;;1.53;;
76675;SDS011;69204;55.350;36.906;2024-03-25T09:15:48;5.47;;;1.95;;
76675;SDS011;69204;55.350;36.906;2024-03-25T09:20:49;4.10;;;1.97;;
76675;SDS011;69204;55.350;36.906;2024-03-25T09:25:50;5.25;;;1.90;;
76675;SDS011;69204;55.350;36.906;2024-03-25T09:30:51;6.70;;;2.33;;
76675;SDS011;69204;55.350;36.906;2024-03-25T09:35:52;6.40;;;2.20;;
76675;SDS011;69204;55.350;36.906;2024-03-25T09:40:53;4.50;;;2.10;;
76675;SDS011;69204;55.350;36.906;2024-03-25T09:45:54;4.40;;;2.00;;
76675;SDS011;69204;55.350;36.906;2024-03-25T09:50:56;5.40;;;2.17;;
76675;SDS011;69204;55.350;36.906;2024-03-25T09:56:03;5.53;;;2.00;;
76675;SDS011;69204;55.350;36.906;2024-03-25T10:01:04;3.63;;;1.67;;
76675;SDS011;69204;55.350;36.906;2024-03-25T10:06:05;6.83;;;2.47;;
76675;SDS011;69204;55.350;36.906;2024-03-25T10:11:09;4.78;;;1.92;;
76675;SDS011;69204;55.350;36.906;2024-03-25T10:16:10;5.70;;;1.90;;
76675;SDS011;69204;55.350;36.906;2024-03-25T10:21:18;4.18;;;1.88;;
76675;SDS011;69204;55.350;36.906;2024-03-25T10:26:32;4.20;;;1.80;;
76675;SDS011;69204;55.350;36.906;2024-03-25T10:31:33;4.43;;;1.80;;
76675;SDS011;69204;55.350;36.906;2024-03-25T10:36:34;4.38;;;2.00;;
76675;SDS011;69204;55.350;36.906;2024-03-25T10:41:35;5.43;;;1.87;;
76675;SDS011;69204;55.350;36.906;2024-03-25T10:46:38;3.97;;;1.98;;
76675;SDS011;69204;55.350;36.906;2024-03-25T10:51:39;4.45;;;1.60;;
76675;SDS011;69204;55.350;36.906;2024-03-25T10:56:40;4.83;;;1.80;;
76675;SDS011;69204;55.350;36.906;2024-03-25T11:01:41;7.72;;;1.75;;
76675;SDS011;69204;55.350;36.906;2024-03-25T11:06:42;4.13;;;1.60;;
76675;SDS011;69204;55.350;36.906;2024-03-25T11:11:43;5.80;;;2.28;;
76675;SDS011;69204;55.350;36.906;2024-03-25T11:16:51;5.78;;;1.90;;
76675;SDS011;69204;55.350;36.906;2024-03-25T11:21:52;3.88;;;1.90;;
76675;SDS011;69204;55.350;36.906;2024-03-25T11:26:53;5.28;;;2.03;;
76675;SDS011;69204;55.350;36.906;2024-03-25T11:31:54;4.03;;;1.70;;
76675;SDS011;69204;55.350;36.906;2024-03-25T11:36:56;7.07;;;1.80;;
76675;SDS011;69204;55.350;36.906;2024-03-25T11:41:58;3.70;;;1.52;;
76675;SDS011;69204;55.350;36.906;2024-03-25T11:46:59;4.90;;;1.88;;
76675;SDS011;69204;55.350;36.906;2024-03-25T11:52:00;4.90;;;1.85;;
76675;SDS011;69204;55.350;36.906;2024-03-25T11:57:02;3.87;;;1.70;;
76675;SDS011;69204;55.350;36.906;2024-03-25T12:02:05;3.90;;;1.80;;
76675;SDS011;69204;55.350;36.906;2024-03-25T12:07:07;5.97;;;1.63;;
76675;SDS011;69204;55.350;36.906;2024-03-25T12:12:07;5.53;;;1.65;;
76675;SDS011;69204;55.350;36.906;2024-03-25T12:17:08;3.77;;;1.60;;
76675;SDS011;69204;55.350;36.906;2024-03-25T12:22:09;4.55;;;2.15;;
76675;SDS011;69204;55.350;36.906;2024-03-25T12:27:10;5.22;;;1.90;;
76675;SDS011;69204;55.350;36.906;2024-03-25T12:32:12;3.53;;;1.50;;
76675;SDS011;69204;55.350;36.906;2024-03-25T12:37:14;5.25;;;1.67;;
76675;SDS011;69204;55.350;36.906;2024-03-25T12:42:15;5.57;;;2.57;;
76675;SDS011;69204;55.350;36.906;2024-03-25T12:47:16;4.80;;;1.75;;
76675;SDS011;69204;55.350;36.906;2024-03-25T12:52:17;5.45;;;1.90;;
76675;SDS011;69204;55.350;36.906;2024-03-25T12:57:21;3.22;;;1.67;;
76675;SDS011;69204;55.350;36.906;2024-03-25T13:02:22;5.50;;;1.70;;
76675;SDS011;69204;55.350;36.906;2024-03-25T13:07:23;5.47;;;2.17;;
76675;SDS011;69204;55.350;36.906;2024-03-25T13:12:24;4.70;;;1.88;;
76675;SDS011;69204;55.350;36.906;2024-03-25T13:17:25;8.90;;;1.70;;
76675;SDS011;69204;55.350;36.906;2024-03-25T13:22:26;4.75;;;1.73;;
76675;SDS011;69204;55.350;36.906;2024-03-25T13:27:27;5.57;;;2.10;;
76675;SDS011;69204;55.350;36.906;2024-03-25T13:32:28;4.30;;;1.83;;
76675;SDS011;69204;55.350;36.906;2024-03-25T13:37:29;4.75;;;1.90;;
76675;SDS011;69204;55.350;36.906;2024-03-25T13:42:30;4.45;;;1.65;;
76675;SDS011;69204;55.350;36.906;2024-03-25T13:47:32;3.55;;;1.80;;
76675;SDS011;69204;55.350;36.906;2024-03-25T13:52:33;4.07;;;2.17;;
76675;SDS011;69204;55.350;36.906;2024-03-25T13:57:34;4.30;;;1.77;;
76675;SDS011;69204;55.350;36.906;2024-03-25T14:02:35;5.28;;;1.67;;
76675;SDS011;69204;55.350;36.906;2024-03-25T14:07:38;5.45;;;2.08;;
76675;SDS011;69204;55.350;36.906;2024-03-25T14:12:39;3.70;;;1.83;;
76675;SDS011;69204;55.350;36.906;2024-03-25T14:17:44;4.83;;;2.03;;
76675;SDS011;69204;55.350;36.906;2024-03-25T14:22:45;5.43;;;1.65;;
76675;SDS011;69204;55.350;36.906;2024-03-25T14:27:46;4.27;;;2.03;;
76675;SDS011;69204;55.350;36.906;2024-03-25T14:32:47;4.30;;;1.65;;
76675;SDS011;69204;55.350;36.906;2024-03-25T14:37:49;4.65;;;1.88;;
76675;SDS011;69204;55.350;36.906;2024-03-25T14:42:50;5.03;;;1.40;;
76675;SDS011;69204;55.350;36.906;2024-03-25T14:47:51;3.67;;;1.70;;
76675;SDS011;69204;55.350;36.906;2024-03-25T14:52:52;4.50;;;1.93;;
76675;SDS011;69204;55.350;36.906;2024-03-25T14:57:53;4.22;;;1.63;;
76675;SDS011;69204;55.350;36.906;2024-03-25T15:02:54;6.05;;;1.70;;
76675;SDS011;69204;55.350;36.906;2024-03-25T15:07:55;5.30;;;1.60;;
76675;SDS011;69204;55.350;36.906;2024-03-25T15:12:56;4.03;;;1.67;;
76675;SDS011;69204;55.350;36.906;2024-03-25T15:17:57;6.17;;;1.50;;
76675;SDS011;69204;55.350;36.906;2024-03-25T15:22:58;4.57;;;1.70;;
76675;SDS011;69204;55.350;36.906;2024-03-25T15:28:00;3.38;;;1.60;;
76675;SDS011;69204;55.350;36.906;2024-03-25T15:33:00;5.68;;;2.20;;
76675;SDS011;69204;55.350;36.906;2024-03-25T15:38:02;8.80;;;3.95;;
76675;SDS011;69204;55.350;36.906;2024-03-25T15:43:03;5.10;;;2.13;;
76675;SDS011;69204;55.350;36.906;2024-03-25T15:48:04;7.82;;;2.00;;
76675;SDS011;69204;55.350;36.906;2024-03-25T15:53:06;8.00;;;2.38;;
76675;SDS011;69204;55.350;36.906;2024-03-25T15:58:10;4.82;;;2.20;;
76675;SDS011;69204;55.350;36.906;2024-03-25T16:03:11;4.53;;;2.00;;
76675;SDS011;69204;55.350;36.906;2024-03-25T16:08:13;4.97;;;1.97;;
76675;SDS011;69204;55.350;36.906;2024-03-25T16:13:14;4.95;;;1.77;;
76675;SDS011;69204;55.350;36.906;2024-03-25T16:18:15;4.95;;;1.67;;
76675;SDS011;69204;55.350;36.906;2024-03-25T16:23:16;3.95;;;1.67;;
76675;SDS011;69204;55.350;36.906;2024-03-25T16:28:17;6.82;;;2.38;;
76675;SDS011;69204;55.350;36.906;2024-03-25T16:33:18;4.60;;;2.33;;
76675;SDS011;69204;55.350;36.906;2024-03-25T16:38:19;7.40;;;2.67;;
76675;SDS011;69204;55.350;36.906;2024-03-25T16:43:20;6.00;;;2.53;;
76675;SDS011;69204;55.350;36.906;2024-03-25T16:48:21;5.95;;;2.35;;
76675;SDS011;69204;55.350;36.906;2024-03-25T16:53:22;11.43;;;1.90;;
76675;SDS011;69204;55.350;36.906;2024-03-25T16:58:23;5.22;;;2.30;;
76675;SDS011;69204;55.350;36.906;2024-03-25T17:03:25;5.70;;;2.40;;
76675;SDS011;69204;55.350;36.906;2024-03-25T17:08:26;8.50;;;2.60;;
76675;SDS011;69204;55.350;36.906;2024-03-25T17:13:27;7.15;;;2.70;;
76675;SDS011;69204;55.350;36.906;2024-03-25T17:18:28;7.37;;;2.90;;
76675;SDS011;69204;55.350;36.906;2024-03-25T17:23:29;5.68;;;3.03;;
76675;SDS011;69204;55.350;36.906;2024-03-25T17:28:31;9.03;;;4.53;;
76675;SDS011;69204;55.350;36.906;2024-03-25T17:33:33;6.20;;;2.72;;
76675;SDS011;69204;55.350;36.906;2024-03-25T17:38:35;5.25;;;2.50;;
76675;SDS011;69204;55.350;36.906;2024-03-25T17:43:39;8.90;;;3.60;;
76675;SDS011;69204;55.350;36.906;2024-03-25T17:48:40;9.23;;;4.38;;
76675;SDS011;69204;55.350;36.906;2024-03-25T17:53:41;14.10;;;4.80;;
76675;SDS011;69204;55.350;36.906;2024-03-25T17:58:42;11.50;;;4.50;;
76675;SDS011;69204;55.350;36.906;2024-03-25T18:03:43;12.30;;;4.83;;
76675;SDS011;69204;55.350;36.906;2024-03-25T18:08:44;21.33;;;6.80;;
76675;SDS011;69204;55.350;36.906;2024-03-25T18:13:45;39.33;;;10.85;;
76675;SDS011;69204;55.350;36.906;2024-03-25T18:18:46;23.83;;;7.53;;
76675;SDS011;69204;55.350;36.906;2024-03-25T18:23:47;37.47;;;11.55;;
76675;SDS011;69204;55.350;36.906;2024-03-25T18:28:48;19.37;;;6.70;;
76675;SDS011;69204;55.350;36.906;2024-03-25T18:33:50;29.17;;;8.30;;
76675;SDS011;69204;55.350;36.906;2024-03-25T18:38:51;24.67;;;8.20;;
76675;SDS011;69204;55.350;36.906;2024-03-25T18:43:52;18.23;;;6.72;;
76675;SDS011;69204;55.350;36.906;2024-03-25T18:48:53;18.35;;;6.90;;
76675;SDS011;69204;55.350;36.906;2024-03-25T18:53:54;18.47;;;7.00;;
76675;SDS011;69204;55.350;36.906;2024-03-25T18:58:55;20.77;;;7.13;;
76675;SDS011;69204;55.350;36.906;2024-03-25T19:03:56;17.33;;;6.03;;
76675;SDS011;69204;55.350;36.906;2024-03-25T19:08:57;14.00;;;5.25;;
76675;SDS011;69204;55.350;36.906;2024-03-25T19:13:58;10.90;;;5.47;;
76675;SDS011;69204;55.350;36.906;2024-03-25T19:18:59;12.37;;;5.40;;
76675;SDS011;69204;55.350;36.906;2024-03-25T19:24:02;13.68;;;4.72;;
76675;SDS011;69204;55.350;36.906;2024-03-25T19:29:02;15.52;;;4.57;;
76675;SDS011;69204;55.350;36.906;2024-03-25T19:34:03;12.10;;;5.47;;
76675;SDS011;69204;55.350;36.906;2024-03-25T19:39:04;13.85;;;5.07;;
76675;SDS011;69204;55.350;36.906;2024-03-25T19:44:05;18.07;;;5.47;;
76675;SDS011;69204;55.350;36.906;2024-03-25T19:49:07;15.90;;;6.13;;
76675;SDS011;69204;55.350;36.906;2024-03-25T19:54:08;13.33;;;5.50;;
76675;SDS011;69204;55.350;36.906;2024-03-25T19:59:10;15.73;;;6.38;;
76675;SDS011;69204;55.350;36.906;2024-03-25T20:04:14;14.32;;;5.47;;
76675;SDS011;69204;55.350;36.906;2024-03-25T20:09:15;20.88;;;6.38;;
76675;SDS011;69204;55.350;36.906;2024-03-25T20:14:16;26.33;;;6.28;;
76675;SDS011;69204;55.350;36.906;2024-03-25T20:19:17;21.63;;;5.60;;
76675;SDS011;69204;55.350;36.906;2024-03-25T20:24:19;15.82;;;5.82;;
76675;SDS011;69204;55.350;36.906;2024-03-25T20:29:20;14.03;;;5.80;;
76675;SDS011;69204;55.350;36.906;2024-03-25T20:34:21;16.83;;;5.63;;
76675;SDS011;69204;55.350;36.906;2024-03-25T20:39:22;10.57;;;5.10;;
76675;SDS011;69204;55.350;36.906;2024-03-25T20:44:23;12.40;;;4.60;;
76675;SDS011;69204;55.350;36.906;2024-03-25T20:49:24;9.77;;;4.30;;
76675;SDS011;69204;55.350;36.906;2024-03-25T20:54:24;15.33;;;4.77;;
76675;SDS011;69204;55.350;36.906;2024-03-25T20:59:26;11.82;;;5.03;;
76675;SDS011;69204;55.350;36.906;2024-03-25T21:04:27;13.40;;;4.63;;
76675;SDS011;69204;55.350;36.906;2024-03-25T21:09:28;10.48;;;4.35;;
76675;SDS011;69204;55.350;36.906;2024-03-25T21:14:29;13.23;;;4.37;;
76675;SDS011;69204;55.350;36.906;2024-03-25T21:19:30;7.93;;;4.05;;
76675;SDS011;69204;55.350;36.906;2024-03-25T21:24:32;17.60;;;6.90;;
76675;SDS011;69204;55.350;36.906;2024-03-25T21:29:33;13.80;;;6.07;;
76675;SDS011;69204;55.350;36.906;2024-03-25T21:34:34;13.15;;;5.03;;
76675;SDS011;69204;55.350;36.906;2024-03-25T21:39:35;10.57;;;4.17;;
76675;SDS011;69204;55.350;36.906;2024-03-25T21:44:35;11.27;;;4.03;;
76675;SDS011;69204;55.350;36.906;2024-03-25T21:49:36;21.93;;;5.20;;
76675;SDS011;69204;55.350;36.906;2024-03-25T21:54:37;16.85;;;4.90;;
76675;SDS011;69204;55.350;36.906;2024-03-25T21:59:38;20.30;;;4.85;;
76675;SDS011;69204;55.350;36.906;2024-03-25T22:04:39;24.50;;;5.07;;
76675;SDS011;69204;55.350;36.906;2024-03-25T22:09:40;14.43;;;4.72;;
76675;SDS011;69204;55.350;36.906;2024-03-25T22:14:41;11.37;;;4.43;;
76675;SDS011;69204;55.350;36.906;2024-03-25T22:19:42;11.00;;;4.25;;
76675;SDS011;69204;55.350;36.906;2024-03-25T22:24:43;9.85;;;3.78;;
76675;SDS011;69204;55.350;36.906;2024-03-25T22:29:48;15.23;;;5.05;;
76675;SDS011;69204;55.350;36.906;2024-03-25T22:34:49;14.35;;;4.20;;
76675;SDS011;69204;55.350;36.906;2024-03-25T22:39:50;17.13;;;5.20;;
76675;SDS011;69204;55.350;36.906;2024-03-25T22:44:51;16.90;;;4.65;;
76675;SDS011;69204;55.350;36.906;2024-03-25T22:49:53;12.25;;;4.82;;
76675;SDS011;69204;55.350;36.906;2024-03-25T22:54:54;16.55;;;4.70;;
76675;SDS011;69204;55.350;36.906;2024-03-25T22:59:56;7.72;;;3.65;;
76675;SDS011;69204;55.350;36.906;2024-03-25T23:04:57;7.47;;;3.80;;
76675;SDS011;69204;55.350;36.906;2024-03-25T23:09:58;11.02;;;4.22;;
76675;SDS011;69204;55.350;36.906;2024-03-25T23:14:59;10.10;;;3.40;;
76675;SDS011;69204;55.350;36.906;2024-03-25T23:20:00;11.98;;;4.30;;
76675;SDS011;69204;55.350;36.906;2024-03-25T23:25:01;9.77;;;3.78;;
76675;SDS011;69204;55.350;36.906;2024-03-25T23:30:04;11.57;;;3.50;;
76675;SDS011;69204;55.350;36.906;2024-03-25T23:35:05;13.05;;;4.15;;
76675;SDS011;69204;55.350;36.906;2024-03-25T23:40:07;11.15;;;3.70;;
76675;SDS011;69204;55.350;36.906;2024-03-25T23:45:08;8.10;;;3.70;;
76675;SDS011;69204;55.350;36.906;2024-03-25T23:50:09;7.90;;;3.45;;
76675;SDS011;69204;55.350;36.906;2024-03-25T23:55:10;9.23;;;3.60;;
